Time;durP1;ratioP1;P1;durP2;ratioP2;P2;SDS_P1;SDS_P2;PMS_P1;PMS_P2;Temp;Humidity;BMP_temperature;BMP_pressure;BME280_temperature;BME280_humidity;BME280_pressure;Samples;Min_cycle;Max_cycle;Signal;HPM_P1;HPM_P2
2022/11/04 00:04:53;;;;;;;51.85;31.45;;;16.40;87.90;;;;;;10788264;33;20039;-73
2022/11/04 00:17:18;;;;;;;47.40;31.95;;;16.40;88.00;;;;;;10787623;33;20020;-73
2022/11/04 00:29:40;;;;;;;77.62;54.90;;;16.30;88.10;;;;;;10748514;32;20057;-73
2022/11/04 00:35:56;;;;;;;101.47;69.70;;;16.30;88.20;;;;;;10751145;33;20029;-73
2022/11/04 00:41:58;;;;;;;89.60;65.82;;;16.20;88.40;;;;;;10750985;33;20044;-73
2022/11/04 00:48:00;;;;;;;99.47;67.03;;;16.20;88.60;;;;;;10737893;33;20083;-72
2022/11/04 00:54:02;;;;;;;76.97;52.95;;;16.20;88.70;;;;;;10749415;33;20032;-73
2022/11/04 01:00:06;;;;;;;50.58;38.30;;;16.20;88.90;;;;;;10750541;33;20033;-73
2022/11/04 01:06:28;;;;;;;76.40;53.95;;;16.20;89.00;;;;;;10750668;33;20024;-74
2022/11/04 01:12:30;;;;;;;57.28;39.15;;;16.20;88.90;;;;;;10750306;32;20054;-73
2022/11/04 01:18:32;;;;;;;75.97;57.10;;;16.20;88.90;;;;;;10750135;33;20029;-73
2022/11/04 01:24:34;;;;;;;88.78;66.00;;;16.20;88.80;;;;;;10746722;33;20044;-74
2022/11/04 01:30:39;;;;;;;51.05;37.03;;;16.20;88.90;;;;;;10756336;33;20033;-72
2022/11/04 01:37:13;;;;;;;83.60;61.75;;;16.10;89.10;;;;;;10755969;33;20075;-74
2022/11/04 01:43:20;;;;;;;49.15;33.40;;;16.10;89.20;;;;;;10752618;33;20037;-72
2022/11/04 01:49:22;;;;;;;51.80;34.83;;;16.10;89.10;;;;;;10755798;33;20021;-72
2022/11/04 01:55:39;;;;;;;61.53;42.15;;;16.10;88.80;;;;;;10755433;33;20037;-73
2022/11/04 02:01:42;;;;;;;43.78;32.10;;;16.10;89.00;;;;;;10751656;33;20054;-72
2022/11/04 02:07:49;;;;;;;42.80;30.12;;;16.10;89.20;;;;;;10755210;33;20436;-73
2022/11/04 02:13:51;;;;;;;39.75;32.40;;;16.10;89.20;;;;;;10741238;33;20033;-74
2022/11/04 02:20:02;;;;;;;55.33;36.88;;;16.20;89.10;;;;;;10754784;33;20032;-73
2022/11/04 02:26:43;;;;;;;50.25;36.45;;;16.20;89.20;;;;;;10753415;33;20020;-74
2022/11/04 02:33:03;;;;;;;44.17;31.40;;;16.20;89.20;;;;;;10571816;33;20049;-74
2022/11/04 02:39:52;;;;;;;47.88;28.90;;;16.20;89.20;;;;;;10570970;33;20030;-74
2022/11/04 02:46:34;;;;;;;28.30;20.13;;;16.20;89.20;;;;;;10578032;33;20161;-73
2022/11/04 02:52:48;;;;;;;32.60;21.98;;;16.20;89.20;;;;;;10573026;33;20065;-73
2022/11/04 02:59:13;;;;;;;22.13;13.80;;;16.30;89.20;;;;;;10582560;33;20441;-73
2022/11/04 03:05:20;;;;;;;17.27;11.73;;;16.30;89.30;;;;;;10682927;33;20407;-74
2022/11/04 03:11:24;;;;;;;20.30;12.00;;;16.40;89.50;;;;;;10679641;33;20065;-73
2022/11/04 03:17:35;;;;;;;20.30;10.63;;;16.50;89.50;;;;;;10678053;33;20037;-73
2022/11/04 03:23:37;;;;;;;10.82;7.12;;;16.50;89.70;;;;;;10732949;33;20024;-73
2022/11/04 03:29:46;;;;;;;10.93;7.00;;;16.60;89.70;;;;;;10752921;33;20036;-73
2022/11/04 03:35:48;;;;;;;18.05;8.15;;;16.60;89.60;;;;;;10752843;33;20356;-72
2022/11/04 03:41:55;;;;;;;17.10;12.20;;;16.70;89.80;;;;;;10752794;33;20183;-72
2022/11/04 03:47:58;;;;;;;16.75;11.95;;;16.70;89.90;;;;;;10739428;33;20021;-73
2022/11/04 03:54:00;;;;;;;10.52;7.55;;;16.70;89.90;;;;;;10752051;32;20390;-73
2022/11/04 04:00:15;;;;;;;21.98;11.48;;;16.70;89.80;;;;;;10752086;33;20055;-73
2022/11/04 04:06:39;;;;;;;17.67;9.50;;;16.80;89.70;;;;;;10752128;33;20357;-73
2022/11/04 04:12:41;;;;;;;14.32;7.50;;;16.70;89.60;;;;;;10752093;33;20052;-72
2022/11/04 04:18:53;;;;;;;19.17;11.65;;;16.80;89.50;;;;;;10751953;33;20389;-72
2022/11/04 04:50:50;;;;;;;11.65;6.78;;;16.70;89.30;;;;;;10675114;33;20068;-73
2022/11/04 04:56:52;;;;;;;8.80;6.20;;;16.70;89.30;;;;;;10672584;33;20032;-73
2022/11/04 05:02:54;;;;;;;12.23;7.25;;;16.70;89.30;;;;;;10677785;33;20048;-73
2022/11/04 05:08:56;;;;;;;12.10;7.47;;;16.70;89.10;;;;;;10699842;33;20021;-73
2022/11/04 05:14:58;;;;;;;11.43;6.87;;;16.70;89.20;;;;;;10756851;33;20344;-73
2022/11/04 05:21:13;;;;;;;9.38;4.90;;;16.70;89.10;;;;;;10757363;33;20056;-73
2022/11/04 05:27:15;;;;;;;8.88;5.50;;;16.70;89.10;;;;;;10756368;33;20043;-73
2022/11/04 05:33:17;;;;;;;8.50;4.75;;;16.70;89.00;;;;;;10755172;33;20020;-73
2022/11/04 05:39:19;;;;;;;7.87;5.37;;;16.70;89.00;;;;;;10756028;33;20051;-74
2022/11/04 05:45:21;;;;;;;16.62;5.65;;;16.70;89.10;;;;;;10756062;33;20341;-74
2022/11/04 05:51:26;;;;;;;8.57;4.95;;;16.60;89.00;;;;;;10754096;33;20044;-75
2022/11/04 05:57:28;;;;;;;9.82;4.28;;;16.70;89.00;;;;;;10754398;33;20455;-75
2022/11/04 06:03:30;;;;;;;6.03;4.25;;;16.60;88.90;;;;;;10752822;33;20071;-75
2022/11/04 06:09:37;;;;;;;10.02;5.07;;;16.70;88.90;;;;;;10754490;33;20047;-75
2022/11/04 06:15:39;;;;;;;5.80;3.97;;;16.70;88.90;;;;;;10750305;33;20025;-74
2022/11/04 06:21:42;;;;;;;11.27;5.53;;;16.70;88.80;;;;;;10750797;32;20337;-75
2022/11/04 06:27:44;;;;;;;12.13;5.55;;;16.70;88.80;;;;;;10757969;33;20344;-74
2022/11/04 06:33:46;;;;;;;8.40;4.05;;;16.70;88.70;;;;;;10754040;33;20033;-75
2022/11/04 06:39:53;;;;;;;8.45;4.35;;;16.70;88.80;;;;;;10754032;33;20013;-75
2022/11/04 06:45:56;;;;;;;15.30;4.22;;;16.70;88.70;;;;;;10754161;33;20382;-75
2022/11/04 06:51:59;;;;;;;4.82;3.12;;;16.70;88.70;;;;;;10753973;32;20074;-75
2022/11/04 06:58:02;;;;;;;6.47;4.43;;;16.70;88.70;;;;;;10753313;33;20032;-75
2022/11/04 07:04:04;;;;;;;9.07;4.55;;;16.70;88.70;;;;;;10753770;32;20423;-75
2022/11/04 07:10:07;;;;;;;6.12;3.80;;;16.60;88.70;;;;;;10761412;32;20033;-74
2022/11/04 07:16:09;;;;;;;8.32;4.07;;;16.70;88.70;;;;;;10746678;33;20055;-74
2022/11/04 07:22:11;;;;;;;5.50;3.58;;;16.60;88.70;;;;;;10789354;32;20067;-76
2022/11/04 07:28:14;;;;;;;6.97;3.58;;;16.70;88.70;;;;;;10789600;33;20393;-77
2022/11/04 07:34:16;;;;;;;6.53;3.55;;;16.70;88.50;;;;;;10789160;33;20032;-76
2022/11/04 07:40:33;;;;;;;8.27;4.78;;;16.70;88.50;;;;;;10789407;33;20055;-76
2022/11/04 07:46:40;;;;;;;7.15;4.00;;;16.70;88.40;;;;;;10860089;32;20035;-77
2022/11/04 07:52:42;;;;;;;7.25;4.07;;;16.70;88.40;;;;;;10925550;32;20045;-76
2022/11/04 07:58:45;;;;;;;4.60;3.53;;;16.80;88.20;;;;;;10942351;32;20278;-76
2022/11/04 08:04:49;;;;;;;12.37;5.72;;;16.80;88.00;;;;;;10942831;32;20041;-77
2022/11/04 08:10:55;;;;;;;14.02;7.50;;;16.80;87.70;;;;;;10942717;32;20076;-75
2022/11/04 08:17:12;;;;;;;21.37;12.55;;;16.90;87.30;;;;;;10942127;32;20031;-75
2022/11/04 08:23:19;;;;;;;21.42;15.23;;;16.80;87.00;;;;;;10878660;27;20397;-76
2022/11/04 08:29:21;;;;;;;20.58;16.70;;;16.70;87.10;;;;;;10751185;33;20165;-75
2022/11/04 08:35:30;;;;;;;14.90;12.25;;;16.50;86.80;;;;;;10752024;32;20047;-76
2022/11/04 08:41:33;;;;;;;12.02;8.50;;;16.20;86.60;;;;;;10758767;33;20455;-75
2022/11/04 08:47:50;;;;;;;11.30;5.85;;;16.10;86.50;;;;;;10777423;33;20029;-75
2022/11/04 08:53:52;;;;;;;6.35;3.37;;;16.00;86.50;;;;;;10738385;33;20408;-78
2022/11/04 08:59:55;;;;;;;3.72;2.25;;;15.90;86.10;;;;;;10737880;33;20032;-78
2022/11/04 09:05:57;;;;;;;3.35;2.15;;;15.80;85.70;;;;;;10750619;32;20353;-77
2022/11/04 09:12:09;;;;;;;2.47;1.65;;;15.80;85.90;;;;;;10737792;33;20024;-78
2022/11/04 09:18:11;;;;;;;2.37;1.70;;;15.80;86.10;;;;;;10748439;33;20028;-78
2022/11/04 09:24:14;;;;;;;1.70;1.00;;;16.00;86.20;;;;;;10748307;33;20047;-78
2022/11/04 09:30:16;;;;;;;1.37;1.23;;;16.10;86.10;;;;;;10750002;33;20029;-77
2022/11/04 09:36:39;;;;;;;0.80;0.80;;;16.20;85.90;;;;;;10737690;33;20032;-76
2022/11/04 09:43:02;;;;;;;1.10;1.00;;;16.30;85.60;;;;;;10736842;33;20056;-77
2022/11/04 09:49:08;;;;;;;1.37;1.25;;;16.40;83.90;;;;;;10752252;33;20039;-75
2022/11/04 09:55:16;;;;;;;0.50;0.50;;;16.40;81.80;;;;;;10755760;33;20041;-76
2022/11/04 10:01:30;;;;;;;1.13;1.07;;;16.30;79.50;;;;;;10755820;33;20052;-76
2022/11/04 10:08:08;;;;;;;2.75;1.45;;;16.30;76.70;;;;;;10755397;33;20044;-76
2022/11/04 10:14:25;;;;;;;1.27;0.95;;;16.30;75.20;;;;;;10756592;33;20020;-76
2022/11/04 10:20:35;;;;;;;1.42;0.95;;;16.20;76.10;;;;;;10771695;33;20036;-76
2022/11/04 10:26:49;;;;;;;0.80;0.80;;;16.20;75.60;;;;;;10787546;33;20066;-75
2022/11/04 10:33:08;;;;;;;2.28;1.30;;;16.30;77.00;;;;;;10789878;33;20028;-75
2022/11/04 10:39:17;;;;;;;;;;;16.40;76.50;;;;;;10762498;33;20072;-78
2022/11/04 10:45:26;;;;;;;1.90;1.15;;;16.50;75.70;;;;;;10753455;33;19936;-76
2022/11/04 10:51:28;;;;;;;1.33;0.85;;;16.50;74.40;;;;;;10754018;33;20029;-75
2022/11/04 10:57:31;;;;;;;1.23;0.95;;;16.60;73.80;;;;;;10755956;33;20068;-75
2022/11/04 11:03:34;;;;;;;0.68;0.68;;;16.70;73.50;;;;;;10753846;33;20307;-75
2022/11/04 11:09:44;;;;;;;2.33;1.42;;;16.80;73.40;;;;;;10753691;33;20032;-75
2022/11/04 11:15:48;;;;;;;9.70;1.05;;;17.00;72.50;;;;;;10738895;33;20037;-75
2022/11/04 11:21:54;;;;;;;0.90;0.90;;;17.20;72.20;;;;;;10753259;32;20400;-76
2022/11/04 11:27:59;;;;;;;6.75;3.92;;;17.20;70.90;;;;;;10749043;33;20029;-75
2022/11/04 11:34:14;;;;;;;1.87;1.70;;;17.20;70.50;;;;;;10752554;33;20063;-75
2022/11/04 11:40:30;;;;;;;1.33;1.08;;;17.10;70.80;;;;;;10749801;33;20337;-75
2022/11/04 11:46:36;;;;;;;1.62;1.20;;;17.20;70.60;;;;;;10739753;33;20486;-75
2022/11/04 11:52:41;;;;;;;2.90;1.00;;;17.30;70.00;;;;;;10752507;33;20346;-76
2022/11/04 11:58:45;;;;;;;1.10;1.00;;;17.30;70.50;;;;;;10734859;32;20033;-76
2022/11/04 12:04:48;;;;;;;1.80;1.00;;;17.30;69.30;;;;;;10747848;33;20025;-75
2022/11/04 12:11:15;;;;;;;1.62;1.30;;;17.10;69.80;;;;;;10750613;33;20020;-75
2022/11/04 12:17:22;;;;;;;1.12;0.80;;;17.10;69.50;;;;;;10602018;33;20029;-74
2022/11/04 12:23:27;;;;;;;3.25;1.60;;;17.00;69.40;;;;;;10599447;33;20038;-75
2022/11/04 12:29:51;;;;;;;1.27;1.00;;;17.10;69.70;;;;;;10603821;33;20038;-76
2022/11/04 12:36:16;;;;;;;3.30;1.33;;;17.10;69.00;;;;;;10601254;33;20422;-75
2022/11/04 12:42:30;;;;;;;1.40;1.10;;;17.10;69.30;;;;;;10609528;33;20057;-75
2022/11/04 12:49:24;;;;;;;1.90;1.52;;;17.10;68.60;;;;;;10603918;33;20081;-76
2022/11/04 12:55:46;;;;;;;1.35;0.88;;;17.20;69.20;;;;;;10750045;33;20033;-75
2022/11/04 13:01:59;;;;;;;2.37;1.23;;;17.30;69.60;;;;;;10751722;33;20365;-76
2022/11/04 13:08:20;;;;;;;2.55;1.98;;;17.30;69.50;;;;;;10751849;33;20032;-75
2022/11/04 13:14:28;;;;;;;3.50;2.00;;;17.40;68.90;;;;;;10751648;33;20056;-75
2022/11/04 13:20:34;;;;;;;2.30;1.48;;;17.40;68.90;;;;;;10714673;33;20029;-75
2022/11/04 13:26:36;;;;;;;6.15;1.52;;;17.50;68.40;;;;;;10720420;33;20428;-75
2022/11/04 13:32:47;;;;;;;2.92;1.60;;;17.50;68.90;;;;;;10720141;33;20029;-75
2022/11/04 13:39:24;;;;;;;2.15;1.52;;;17.50;69.00;;;;;;10718772;33;20063;-75
2022/11/04 13:45:26;;;;;;;4.50;1.60;;;17.60;69.10;;;;;;10719820;33;20052;-77
2022/11/04 13:51:34;;;;;;;1.15;0.80;;;17.70;69.00;;;;;;10719718;33;20052;-76
2022/11/04 13:57:53;;;;;;;0.80;0.80;;;17.70;68.80;;;;;;10719550;33;20033;-76
2022/11/04 14:04:14;;;;;;;2.87;1.27;;;17.70;68.20;;;;;;10719015;33;20357;-74
2022/11/04 14:10:36;;;;;;;1.67;1.00;;;17.80;68.30;;;;;;10719073;33;20052;-75
2022/11/04 14:16:40;;;;;;;2.45;1.40;;;17.80;68.50;;;;;;10705993;33;20033;-74
2022/11/04 14:22:43;;;;;;;0.68;0.65;;;17.80;68.00;;;;;;10715117;33;20068;-75
2022/11/04 14:28:49;;;;;;;1.20;0.85;;;17.80;68.20;;;;;;10714672;33;20052;-74
2022/11/04 14:35:06;;;;;;;2.30;1.15;;;17.90;67.30;;;;;;10704332;33;20025;-74
2022/11/04 14:41:27;;;;;;;3.85;1.85;;;17.80;66.40;;;;;;10718046;33;20025;-74
2022/11/04 14:47:31;;;;;;;4.57;2.33;;;17.80;67.10;;;;;;10717881;33;20048;-76
2022/11/04 14:53:36;;;;;;;7.03;2.08;;;17.80;66.70;;;;;;10717895;33;20029;-76
2022/11/04 14:59:38;;;;;;;2.50;1.37;;;17.80;66.60;;;;;;10719960;33;20037;-76
2022/11/04 15:05:50;;;;;;;3.50;1.87;;;17.80;67.00;;;;;;10749754;33;20033;-77
2022/11/04 15:18:28;;;;;;;1.52;1.20;;;17.80;68.40;;;;;;10753247;33;20067;-75
2022/11/04 15:24:30;;;;;;;1.60;0.90;;;17.70;69.00;;;;;;10753178;33;20021;-75
2022/11/04 15:30:32;;;;;;;2.80;1.92;;;17.50;69.50;;;;;;10753115;33;20024;-76
2022/11/04 15:37:05;;;;;;;1.85;1.33;;;17.40;70.10;;;;;;10673750;33;20055;-75
2022/11/04 15:43:07;;;;;;;1.25;1.00;;;17.30;70.60;;;;;;10673945;33;20085;-75
2022/11/04 15:49:20;;;;;;;1.30;0.88;;;17.20;71.20;;;;;;10676110;33;20029;-75
2022/11/04 15:55:25;;;;;;;0.77;0.77;;;17.10;71.90;;;;;;10663693;33;20061;-75
2022/11/04 16:01:27;;;;;;;0.77;0.77;;;17.00;72.40;;;;;;10675602;33;20059;-75
2022/11/04 16:07:50;;;;;;;1.42;1.10;;;16.90;73.10;;;;;;10672862;33;20029;-75
2022/11/04 16:13:52;;;;;;;1.40;1.23;;;16.70;74.10;;;;;;10742431;33;20407;-75
2022/11/04 16:19:57;;;;;;;3.30;1.80;;;16.60;74.70;;;;;;10751638;33;20032;-76
2022/11/04 16:26:06;;;;;;;4.00;1.83;;;16.60;75.00;;;;;;10335398;27;12006841;-75
2022/11/04 16:32:44;;;;;;;6.47;3.83;;;16.50;75.40;;;;;;10679106;33;20138;-75
2022/11/04 16:38:51;;;;;;;6.45;3.42;;;16.30;76.10;;;;;;10787053;33;20036;-75
2022/11/04 16:45:00;;;;;;;6.80;2.65;;;16.20;76.50;;;;;;10788496;33;20067;-75
2022/11/04 16:51:03;;;;;;;7.90;3.72;;;16.10;77.10;;;;;;10788278;33;20024;-75
2022/11/04 16:57:10;;;;;;;6.70;4.32;;;16.00;77.50;;;;;;10707136;33;20109;-75
2022/11/04 17:03:22;;;;;;;7.95;3.62;;;16.00;77.50;;;;;;10646096;33;20041;-75
2022/11/04 17:09:24;;;;;;;5.57;2.85;;;16.00;77.90;;;;;;10647955;33;20040;-75
2022/11/04 17:15:27;;;;;;;6.68;2.87;;;16.00;78.40;;;;;;10710258;33;20033;-75
2022/11/04 17:21:29;;;;;;;5.72;2.30;;;15.90;78.60;;;;;;10720353;33;20059;-75
2022/11/04 17:27:32;;;;;;;4.03;2.20;;;15.90;78.80;;;;;;10720059;33;20025;-75
2022/11/04 17:33:34;;;;;;;3.80;2.35;;;15.80;79.20;;;;;;10720002;33;20317;-75
2022/11/04 17:39:36;;;;;;;2.72;1.73;;;15.80;79.70;;;;;;10717973;33;20068;-75
2022/11/04 17:45:40;;;;;;;3.83;2.22;;;15.70;79.60;;;;;;10719691;33;20333;-75
2022/11/04 17:51:44;;;;;;;2.60;1.77;;;15.70;79.70;;;;;;10719536;33;20342;-75
2022/11/04 17:57:46;;;;;;;3.05;2.15;;;15.70;80.00;;;;;;10717549;33;20072;-75
2022/11/04 18:03:51;;;;;;;4.30;2.58;;;15.70;80.00;;;;;;10718473;33;20029;-76
2022/11/04 18:09:53;;;;;;;6.65;3.83;;;15.70;80.00;;;;;;10718004;33;20087;-75
2022/11/04 18:15:55;;;;;;;7.57;4.22;;;15.60;80.10;;;;;;10718580;33;20056;-75
2022/11/04 18:21:57;;;;;;;6.10;3.75;;;15.60;80.20;;;;;;10714467;33;20048;-75
2022/11/04 18:27:59;;;;;;;7.62;3.12;;;15.50;80.30;;;;;;10718514;33;20033;-75
2022/11/04 18:34:03;;;;;;;5.15;3.10;;;15.50;80.50;;;;;;10717561;33;20436;-76
2022/11/04 18:40:06;;;;;;;6.03;3.72;;;15.50;80.50;;;;;;10718020;33;20041;-76
2022/11/04 18:46:31;;;;;;;3.60;2.72;;;15.40;80.50;;;;;;10717714;33;20349;-75
2022/11/04 18:52:33;;;;;;;4.70;2.80;;;15.40;80.60;;;;;;10717618;33;20072;-75
2022/11/04 18:58:37;;;;;;;4.30;3.62;;;15.30;80.80;;;;;;10717445;33;20428;-76
2022/11/04 19:04:39;;;;;;;5.43;3.45;;;15.30;80.90;;;;;;10712998;33;20064;-76
2022/11/04 19:10:41;;;;;;;8.57;3.35;;;15.30;81.10;;;;;;10716242;33;20048;-76
2022/11/04 19:16:43;;;;;;;5.80;3.33;;;15.20;81.40;;;;;;10717002;33;20373;-76
2022/11/04 19:22:46;;;;;;;3.75;2.85;;;15.30;81.50;;;;;;10716589;33;20044;-77
2022/11/04 19:28:48;;;;;;;4.60;3.50;;;15.20;81.50;;;;;;10716730;33;20349;-75
2022/11/04 19:34:50;;;;;;;5.87;4.05;;;15.20;81.60;;;;;;10716294;33;20021;-77
2022/11/04 19:40:53;;;;;;;4.82;3.53;;;15.20;81.80;;;;;;10716200;33;20033;-77
2022/11/04 19:46:55;;;;;;;4.82;2.80;;;15.20;81.80;;;;;;10715927;33;20401;-77
2022/11/04 19:52:58;;;;;;;3.00;2.58;;;15.10;81.80;;;;;;10715955;33;20334;-77
2022/11/04 19:59:01;;;;;;;3.53;2.55;;;15.10;82.00;;;;;;10715763;33;20338;-77
2022/11/04 20:05:04;;;;;;;5.62;3.75;;;15.10;82.10;;;;;;10714730;33;20056;-77
2022/11/04 20:11:07;;;;;;;5.53;3.12;;;15.10;82.20;;;;;;10713272;33;20056;-77
2022/11/04 20:17:10;;;;;;;3.33;2.30;;;15.00;82.60;;;;;;10710984;33;20410;-77
2022/11/04 20:23:12;;;;;;;5.43;3.42;;;15.00;82.80;;;;;;10713770;32;20051;-77
2022/11/04 20:29:15;;;;;;;6.37;4.00;;;15.00;82.70;;;;;;10714755;33;20055;-77
2022/11/04 20:35:18;;;;;;;4.72;3.12;;;15.00;82.70;;;;;;10714009;33;20420;-77
2022/11/04 20:41:21;;;;;;;4.25;3.50;;;14.90;82.60;;;;;;10714319;33;20037;-77
2022/11/04 20:47:23;;;;;;;4.78;2.83;;;14.80;82.70;;;;;;10714505;33;20405;-77
2022/11/04 20:53:25;;;;;;;5.05;3.55;;;14.70;82.70;;;;;;10713148;33;20432;-77
2022/11/04 20:59:27;;;;;;;4.82;3.45;;;14.60;82.70;;;;;;10713393;33;20037;-77
2022/11/04 21:05:29;;;;;;;5.03;3.70;;;14.60;82.80;;;;;;10714150;33;20432;-77
2022/11/04 21:11:34;;;;;;;4.82;3.78;;;14.70;82.90;;;;;;10711611;33;20016;-77
2022/11/04 21:17:36;;;;;;;4.68;3.67;;;14.70;83.10;;;;;;10711424;33;20059;-77
2022/11/04 21:23:39;;;;;;;5.55;4.37;;;14.70;83.10;;;;;;10714004;33;20056;-77
2022/11/04 21:30:01;;;;;;;4.72;3.12;;;14.60;83.00;;;;;;10710100;33;20436;-76
2022/11/04 21:36:06;;;;;;;4.70;3.50;;;14.50;83.00;;;;;;10717193;33;20067;-76
2022/11/04 21:42:08;;;;;;;6.85;3.45;;;14.50;83.10;;;;;;10749448;33;20033;-76
2022/11/04 21:48:10;;;;;;;3.65;3.25;;;14.30;83.30;;;;;;10756121;33;20356;-76
2022/11/04 21:54:12;;;;;;;3.78;2.90;;;14.30;83.40;;;;;;10755924;33;20051;-77
2022/11/04 22:00:15;;;;;;;6.60;3.47;;;14.40;83.50;;;;;;10755747;33;20054;-76
2022/11/04 22:06:21;;;;;;;4.47;3.22;;;14.30;83.30;;;;;;10755543;33;20028;-77
2022/11/04 22:12:23;;;;;;;6.18;2.78;;;14.20;83.30;;;;;;10755437;33;20060;-77
2022/11/04 22:18:30;;;;;;;3.90;2.58;;;14.20;83.30;;;;;;10755190;33;20041;-77
2022/11/04 22:24:32;;;;;;;4.22;3.05;;;14.10;83.40;;;;;;10754989;33;20382;-77
2022/11/04 22:30:35;;;;;;;3.03;2.30;;;14.20;83.30;;;;;;10755041;32;20036;-76
2022/11/04 22:36:38;;;;;;;5.22;2.20;;;14.10;83.30;;;;;;10751754;33;20033;-77
2022/11/04 22:42:42;;;;;;;4.72;3.22;;;14.00;83.30;;;;;;10754542;33;20047;-77
2022/11/04 22:48:44;;;;;;;4.25;2.78;;;14.10;83.30;;;;;;10754420;33;20456;-77
2022/11/04 22:54:46;;;;;;;5.12;4.07;;;14.00;83.30;;;;;;10749752;33;20456;-77
2022/11/04 23:00:58;;;;;;;4.35;3.17;;;14.00;83.40;;;;;;10754118;33;20020;-77
2022/11/04 23:07:00;;;;;;;4.07;3.00;;;14.00;83.40;;;;;;10753974;33;20025;-77
2022/11/04 23:19:23;;;;;;;5.12;3.40;;;13.90;83.40;;;;;;10753547;33;20051;-77
2022/11/04 23:25:25;;;;;;;6.55;3.35;;;13.80;83.60;;;;;;10753341;33;20056;-77
2022/11/04 23:31:27;;;;;;;3.00;2.58;;;13.90;84.10;;;;;;10753143;33;20028;-77
2022/11/04 23:37:32;;;;;;;5.28;3.17;;;14.00;84.00;;;;;;10752956;33;20397;-77
2022/11/04 23:43:34;;;;;;;4.93;3.28;;;13.90;84.00;;;;;;10752901;33;20060;-77
